sensor_id;sensor_type;location;lat;lon;timestamp;P1;durP1;ratioP1;P2;durP2;ratioP2
53389;SDS011;39288;42.970;1.524;2022-07-09T00:00:44;3.97;;;2.10;;
53389;SDS011;39288;42.970;1.524;2022-07-09T00:01:45;3.57;;;1.90;;
53389;SDS011;39288;42.970;1.524;2022-07-09T00:02:45;2.77;;;1.80;;
53389;SDS011;39288;42.970;1.524;2022-07-09T00:03:46;3.63;;;2.43;;
53389;SDS011;39288;42.970;1.524;2022-07-09T00:04:46;5.77;;;2.50;;
53389;SDS011;39288;42.970;1.524;2022-07-09T00:05:47;2.80;;;2.23;;
53389;SDS011;39288;42.970;1.524;2022-07-09T00:06:47;5.17;;;2.20;;
53389;SDS011;39288;42.970;1.524;2022-07-09T00:07:48;5.20;;;2.30;;
53389;SDS011;39288;42.970;1.524;2022-07-09T00:08:48;3.97;;;2.20;;
53389;SDS011;39288;42.970;1.524;2022-07-09T00:09:49;3.37;;;2.13;;
53389;SDS011;39288;42.970;1.524;2022-07-09T00:10:49;4.30;;;2.43;;
53389;SDS011;39288;42.970;1.524;2022-07-09T00:11:50;3.73;;;2.23;;
53389;SDS011;39288;42.970;1.524;2022-07-09T00:12:52;5.07;;;2.35;;
53389;SDS011;39288;42.970;1.524;2022-07-09T00:13:52;3.17;;;2.20;;
53389;SDS011;39288;42.970;1.524;2022-07-09T00:14:53;3.63;;;2.53;;
53389;SDS011;39288;42.970;1.524;2022-07-09T00:15:53;5.40;;;2.50;;
53389;SDS011;39288;42.970;1.524;2022-07-09T00:16:54;3.73;;;2.37;;
53389;SDS011;39288;42.970;1.524;2022-07-09T00:17:54;3.70;;;2.00;;
53389;SDS011;39288;42.970;1.524;2022-07-09T00:18:55;8.07;;;2.87;;
53389;SDS011;39288;42.970;1.524;2022-07-09T00:19:56;4.73;;;2.70;;
53389;SDS011;39288;42.970;1.524;2022-07-09T00:20:56;3.42;;;2.38;;
53389;SDS011;39288;42.970;1.524;2022-07-09T00:21:57;4.37;;;2.20;;
53389;SDS011;39288;42.970;1.524;2022-07-09T00:22:57;5.00;;;2.47;;
53389;SDS011;39288;42.970;1.524;2022-07-09T00:23:58;5.35;;;2.35;;
53389;SDS011;39288;42.970;1.524;2022-07-09T00:24:59;5.67;;;2.90;;
53389;SDS011;39288;42.970;1.524;2022-07-09T00:26:00;3.13;;;2.17;;
53389;SDS011;39288;42.970;1.524;2022-07-09T00:27:00;4.83;;;2.20;;
53389;SDS011;39288;42.970;1.524;2022-07-09T00:28:01;4.00;;;2.07;;
53389;SDS011;39288;42.970;1.524;2022-07-09T00:29:01;6.17;;;2.53;;
53389;SDS011;39288;42.970;1.524;2022-07-09T00:30:02;4.73;;;2.00;;
53389;SDS011;39288;42.970;1.524;2022-07-09T00:31:03;2.83;;;2.13;;
53389;SDS011;39288;42.970;1.524;2022-07-09T00:32:04;5.63;;;1.83;;
53389;SDS011;39288;42.970;1.524;2022-07-09T00:33:04;4.20;;;2.10;;
53389;SDS011;39288;42.970;1.524;2022-07-09T00:34:05;4.80;;;2.17;;
53389;SDS011;39288;42.970;1.524;2022-07-09T00:35:06;4.57;;;2.40;;
53389;SDS011;39288;42.970;1.524;2022-07-09T00:36:06;4.77;;;2.53;;
53389;SDS011;39288;42.970;1.524;2022-07-09T00:37:07;2.13;;;1.83;;
53389;SDS011;39288;42.970;1.524;2022-07-09T00:38:08;4.47;;;2.00;;
53389;SDS011;39288;42.970;1.524;2022-07-09T00:39:08;3.50;;;2.40;;
53389;SDS011;39288;42.970;1.524;2022-07-09T00:40:10;3.30;;;1.97;;
53389;SDS011;39288;42.970;1.524;2022-07-09T00:41:11;5.25;;;2.00;;
53389;SDS011;39288;42.970;1.524;2022-07-09T00:42:11;4.97;;;1.87;;
53389;SDS011;39288;42.970;1.524;2022-07-09T00:43:29;3.50;;;2.10;;
53389;SDS011;39288;42.970;1.524;2022-07-09T00:44:31;3.28;;;2.13;;
53389;SDS011;39288;42.970;1.524;2022-07-09T00:45:31;3.83;;;1.70;;
53389;SDS011;39288;42.970;1.524;2022-07-09T00:46:32;3.83;;;1.70;;
53389;SDS011;39288;42.970;1.524;2022-07-09T00:47:32;2.40;;;1.70;;
53389;SDS011;39288;42.970;1.524;2022-07-09T00:48:32;3.97;;;1.70;;
53389;SDS011;39288;42.970;1.524;2022-07-09T00:49:40;3.77;;;1.50;;
53389;SDS011;39288;42.970;1.524;2022-07-09T00:50:42;2.80;;;2.05;;
53389;SDS011;39288;42.970;1.524;2022-07-09T00:51:43;5.70;;;2.05;;
53389;SDS011;39288;42.970;1.524;2022-07-09T00:52:44;5.07;;;2.00;;
53389;SDS011;39288;42.970;1.524;2022-07-09T00:53:45;4.37;;;2.00;;
53389;SDS011;39288;42.970;1.524;2022-07-09T00:55:46;4.57;;;1.98;;
53389;SDS011;39288;42.970;1.524;2022-07-09T00:56:47;4.22;;;2.17;;
53389;SDS011;39288;42.970;1.524;2022-07-09T00:57:48;3.80;;;2.27;;
53389;SDS011;39288;42.970;1.524;2022-07-09T00:58:49;4.17;;;1.90;;
53389;SDS011;39288;42.970;1.524;2022-07-09T00:59:50;4.65;;;1.70;;
53389;SDS011;39288;42.970;1.524;2022-07-09T01:00:51;4.35;;;1.80;;
53389;SDS011;39288;42.970;1.524;2022-07-09T01:01:52;3.10;;;1.83;;
53389;SDS011;39288;42.970;1.524;2022-07-09T01:02:53;4.33;;;1.80;;
53389;SDS011;39288;42.970;1.524;2022-07-09T01:03:53;2.90;;;1.70;;
53389;SDS011;39288;42.970;1.524;2022-07-09T01:04:54;5.73;;;1.87;;
53389;SDS011;39288;42.970;1.524;2022-07-09T01:05:54;4.23;;;1.80;;
53389;SDS011;39288;42.970;1.524;2022-07-09T01:06:56;3.13;;;1.88;;
53389;SDS011;39288;42.970;1.524;2022-07-09T01:07:58;2.88;;;2.00;;
53389;SDS011;39288;42.970;1.524;2022-07-09T01:08:58;4.97;;;1.90;;
53389;SDS011;39288;42.970;1.524;2022-07-09T01:09:59;3.37;;;1.97;;
53389;SDS011;39288;42.970;1.524;2022-07-09T01:10:59;3.43;;;2.13;;
53389;SDS011;39288;42.970;1.524;2022-07-09T01:12:00;5.93;;;1.90;;
53389;SDS011;39288;42.970;1.524;2022-07-09T01:13:01;4.27;;;2.20;;
53389;SDS011;39288;42.970;1.524;2022-07-09T01:14:03;3.45;;;2.08;;
53389;SDS011;39288;42.970;1.524;2022-07-09T01:15:04;4.13;;;1.93;;
53389;SDS011;39288;42.970;1.524;2022-07-09T01:16:10;4.45;;;1.98;;
53389;SDS011;39288;42.970;1.524;2022-07-09T01:17:14;4.95;;;2.22;;
53389;SDS011;39288;42.970;1.524;2022-07-09T01:19:17;4.35;;;2.38;;
53389;SDS011;39288;42.970;1.524;2022-07-09T01:20:21;2.90;;;2.00;;
53389;SDS011;39288;42.970;1.524;2022-07-09T01:21:22;3.08;;;1.88;;
53389;SDS011;39288;42.970;1.524;2022-07-09T01:22:23;2.60;;;1.87;;
53389;SDS011;39288;42.970;1.524;2022-07-09T01:23:24;3.67;;;2.57;;
53389;SDS011;39288;42.970;1.524;2022-07-09T01:24:24;2.70;;;1.80;;
53389;SDS011;39288;42.970;1.524;2022-07-09T01:25:35;3.47;;;2.10;;
53389;SDS011;39288;42.970;1.524;2022-07-09T01:26:36;3.35;;;1.90;;
53389;SDS011;39288;42.970;1.524;2022-07-09T01:27:37;7.03;;;2.00;;
53389;SDS011;39288;42.970;1.524;2022-07-09T01:28:37;3.60;;;2.00;;
53389;SDS011;39288;42.970;1.524;2022-07-09T01:29:38;3.73;;;2.00;;
53389;SDS011;39288;42.970;1.524;2022-07-09T01:30:39;3.57;;;1.83;;
53389;SDS011;39288;42.970;1.524;2022-07-09T01:31:41;2.65;;;1.90;;
53389;SDS011;39288;42.970;1.524;2022-07-09T01:32:41;4.63;;;2.07;;
53389;SDS011;39288;42.970;1.524;2022-07-09T01:33:42;3.33;;;2.23;;
53389;SDS011;39288;42.970;1.524;2022-07-09T01:34:43;3.63;;;2.15;;
53389;SDS011;39288;42.970;1.524;2022-07-09T01:35:43;2.33;;;1.90;;
53389;SDS011;39288;42.970;1.524;2022-07-09T01:36:44;3.53;;;2.37;;
53389;SDS011;39288;42.970;1.524;2022-07-09T01:37:44;6.07;;;2.07;;
53389;SDS011;39288;42.970;1.524;2022-07-09T01:38:45;3.47;;;2.13;;
53389;SDS011;39288;42.970;1.524;2022-07-09T01:39:45;7.00;;;2.33;;
53389;SDS011;39288;42.970;1.524;2022-07-09T01:40:52;3.47;;;2.13;;
53389;SDS011;39288;42.970;1.524;2022-07-09T01:41:52;3.47;;;2.10;;
53389;SDS011;39288;42.970;1.524;2022-07-09T01:42:53;6.40;;;2.30;;
53389;SDS011;39288;42.970;1.524;2022-07-09T01:43:54;4.50;;;2.53;;
53389;SDS011;39288;42.970;1.524;2022-07-09T01:44:54;2.93;;;2.07;;
53389;SDS011;39288;42.970;1.524;2022-07-09T01:45:55;4.70;;;2.03;;
53389;SDS011;39288;42.970;1.524;2022-07-09T01:46:55;2.83;;;1.90;;
53389;SDS011;39288;42.970;1.524;2022-07-09T01:47:56;4.47;;;2.27;;
53389;SDS011;39288;42.970;1.524;2022-07-09T01:48:56;4.57;;;1.83;;
53389;SDS011;39288;42.970;1.524;2022-07-09T01:49:57;4.43;;;1.90;;
53389;SDS011;39288;42.970;1.524;2022-07-09T01:50:57;2.80;;;2.10;;
53389;SDS011;39288;42.970;1.524;2022-07-09T01:51:58;4.93;;;1.90;;
53389;SDS011;39288;42.970;1.524;2022-07-09T01:52:59;3.33;;;2.20;;
53389;SDS011;39288;42.970;1.524;2022-07-09T01:53:59;2.83;;;1.87;;
53389;SDS011;39288;42.970;1.524;2022-07-09T01:55:00;3.17;;;2.03;;
53389;SDS011;39288;42.970;1.524;2022-07-09T01:56:07;4.33;;;2.13;;
53389;SDS011;39288;42.970;1.524;2022-07-09T01:57:08;2.92;;;2.22;;
53389;SDS011;39288;42.970;1.524;2022-07-09T01:58:09;2.70;;;2.10;;
53389;SDS011;39288;42.970;1.524;2022-07-09T01:59:09;4.87;;;2.40;;
53389;SDS011;39288;42.970;1.524;2022-07-09T02:00:10;5.03;;;2.53;;
53389;SDS011;39288;42.970;1.524;2022-07-09T02:01:11;7.13;;;2.25;;
53389;SDS011;39288;42.970;1.524;2022-07-09T02:02:12;5.07;;;2.25;;
53389;SDS011;39288;42.970;1.524;2022-07-09T02:03:12;4.73;;;2.03;;
53389;SDS011;39288;42.970;1.524;2022-07-09T02:04:13;4.47;;;2.07;;
53389;SDS011;39288;42.970;1.524;2022-07-09T02:05:13;6.10;;;2.30;;
53389;SDS011;39288;42.970;1.524;2022-07-09T02:06:14;2.67;;;2.37;;
53389;SDS011;39288;42.970;1.524;2022-07-09T02:07:14;5.70;;;2.30;;
53389;SDS011;39288;42.970;1.524;2022-07-09T02:08:15;2.77;;;1.90;;
53389;SDS011;39288;42.970;1.524;2022-07-09T02:09:15;4.60;;;2.07;;
53389;SDS011;39288;42.970;1.524;2022-07-09T02:11:17;2.67;;;2.22;;
53389;SDS011;39288;42.970;1.524;2022-07-09T02:12:18;5.53;;;2.30;;
53389;SDS011;39288;42.970;1.524;2022-07-09T02:13:18;4.00;;;2.20;;
53389;SDS011;39288;42.970;1.524;2022-07-09T02:14:19;4.13;;;2.30;;
53389;SDS011;39288;42.970;1.524;2022-07-09T02:15:20;4.07;;;2.73;;
53389;SDS011;39288;42.970;1.524;2022-07-09T02:16:21;5.45;;;2.45;;
53389;SDS011;39288;42.970;1.524;2022-07-09T02:17:22;2.17;;;1.93;;
53389;SDS011;39288;42.970;1.524;2022-07-09T02:18:23;4.87;;;2.30;;
53389;SDS011;39288;42.970;1.524;2022-07-09T02:19:23;9.27;;;2.73;;
53389;SDS011;39288;42.970;1.524;2022-07-09T02:20:24;4.17;;;2.57;;
53389;SDS011;39288;42.970;1.524;2022-07-09T02:21:25;4.18;;;2.47;;
53389;SDS011;39288;42.970;1.524;2022-07-09T02:22:25;5.13;;;2.10;;
53389;SDS011;39288;42.970;1.524;2022-07-09T02:23:26;4.90;;;2.77;;
53389;SDS011;39288;42.970;1.524;2022-07-09T02:24:26;2.80;;;2.03;;
53389;SDS011;39288;42.970;1.524;2022-07-09T02:26:28;6.25;;;2.35;;
53389;SDS011;39288;42.970;1.524;2022-07-09T02:27:29;3.37;;;2.30;;
53389;SDS011;39288;42.970;1.524;2022-07-09T02:28:29;5.27;;;2.47;;
53389;SDS011;39288;42.970;1.524;2022-07-09T02:29:30;4.23;;;2.00;;
53389;SDS011;39288;42.970;1.524;2022-07-09T02:30:31;3.50;;;2.43;;
53389;SDS011;39288;42.970;1.524;2022-07-09T02:31:36;2.95;;;2.13;;
53389;SDS011;39288;42.970;1.524;2022-07-09T02:32:37;5.30;;;2.50;;
53389;SDS011;39288;42.970;1.524;2022-07-09T02:33:38;3.78;;;2.35;;
53389;SDS011;39288;42.970;1.524;2022-07-09T02:34:38;6.60;;;2.30;;
53389;SDS011;39288;42.970;1.524;2022-07-09T02:35:39;5.50;;;2.20;;
53389;SDS011;39288;42.970;1.524;2022-07-09T02:36:39;4.40;;;2.20;;
53389;SDS011;39288;42.970;1.524;2022-07-09T02:37:40;4.90;;;2.30;;
53389;SDS011;39288;42.970;1.524;2022-07-09T02:39:42;4.57;;;2.55;;
53389;SDS011;39288;42.970;1.524;2022-07-09T02:40:43;4.33;;;2.23;;
53389;SDS011;39288;42.970;1.524;2022-07-09T02:41:43;4.50;;;1.90;;
53389;SDS011;39288;42.970;1.524;2022-07-09T02:42:44;2.87;;;2.50;;
53389;SDS011;39288;42.970;1.524;2022-07-09T02:43:44;4.43;;;2.30;;
53389;SDS011;39288;42.970;1.524;2022-07-09T02:44:45;3.07;;;2.40;;
53389;SDS011;39288;42.970;1.524;2022-07-09T02:45:46;3.33;;;2.20;;
53389;SDS011;39288;42.970;1.524;2022-07-09T02:46:47;7.63;;;2.03;;
53389;SDS011;39288;42.970;1.524;2022-07-09T02:47:47;8.20;;;2.60;;
53389;SDS011;39288;42.970;1.524;2022-07-09T02:48:48;6.77;;;2.80;;
53389;SDS011;39288;42.970;1.524;2022-07-09T02:49:48;4.47;;;2.63;;
53389;SDS011;39288;42.970;1.524;2022-07-09T02:50:49;5.70;;;2.80;;
53389;SDS011;39288;42.970;1.524;2022-07-09T02:51:49;4.07;;;2.33;;
53389;SDS011;39288;42.970;1.524;2022-07-09T02:52:51;3.70;;;2.60;;
53389;SDS011;39288;42.970;1.524;2022-07-09T02:53:52;2.83;;;2.03;;
53389;SDS011;39288;42.970;1.524;2022-07-09T02:54:52;4.07;;;2.13;;
53389;SDS011;39288;42.970;1.524;2022-07-09T02:55:53;3.70;;;2.90;;
53389;SDS011;39288;42.970;1.524;2022-07-09T02:56:53;4.40;;;2.30;;
53389;SDS011;39288;42.970;1.524;2022-07-09T02:57:54;2.80;;;2.30;;
53389;SDS011;39288;42.970;1.524;2022-07-09T02:58:54;4.60;;;2.13;;
53389;SDS011;39288;42.970;1.524;2022-07-09T02:59:55;4.03;;;1.90;;
53389;SDS011;39288;42.970;1.524;2022-07-09T03:00:55;3.13;;;2.30;;
53389;SDS011;39288;42.970;1.524;2022-07-09T03:01:56;3.30;;;2.20;;
53389;SDS011;39288;42.970;1.524;2022-07-09T03:02:56;4.67;;;2.80;;
53389;SDS011;39288;42.970;1.524;2022-07-09T03:03:57;4.17;;;2.70;;
53389;SDS011;39288;42.970;1.524;2022-07-09T03:04:57;6.90;;;2.80;;
53389;SDS011;39288;42.970;1.524;2022-07-09T03:05:58;3.63;;;2.80;;
53389;SDS011;39288;42.970;1.524;2022-07-09T03:06:58;5.13;;;2.60;;
53389;SDS011;39288;42.970;1.524;2022-07-09T03:07:59;4.50;;;2.77;;
53389;SDS011;39288;42.970;1.524;2022-07-09T03:09:00;3.22;;;2.10;;
53389;SDS011;39288;42.970;1.524;2022-07-09T03:10:00;2.43;;;1.83;;
53389;SDS011;39288;42.970;1.524;2022-07-09T03:11:00;3.50;;;2.20;;
53389;SDS011;39288;42.970;1.524;2022-07-09T03:12:01;3.53;;;2.30;;
53389;SDS011;39288;42.970;1.524;2022-07-09T03:13:02;3.20;;;2.17;;
53389;SDS011;39288;42.970;1.524;2022-07-09T03:14:02;5.13;;;2.30;;
53389;SDS011;39288;42.970;1.524;2022-07-09T03:15:03;3.83;;;2.30;;
53389;SDS011;39288;42.970;1.524;2022-07-09T03:16:04;6.28;;;3.08;;
53389;SDS011;39288;42.970;1.524;2022-07-09T03:17:05;5.80;;;2.43;;
53389;SDS011;39288;42.970;1.524;2022-07-09T03:18:05;4.37;;;2.37;;
53389;SDS011;39288;42.970;1.524;2022-07-09T03:19:08;3.45;;;2.13;;
53389;SDS011;39288;42.970;1.524;2022-07-09T03:20:08;3.73;;;2.60;;
53389;SDS011;39288;42.970;1.524;2022-07-09T03:21:10;4.25;;;2.22;;
53389;SDS011;39288;42.970;1.524;2022-07-09T03:22:11;5.10;;;2.58;;
53389;SDS011;39288;42.970;1.524;2022-07-09T03:23:12;5.20;;;2.60;;
53389;SDS011;39288;42.970;1.524;2022-07-09T03:24:13;6.18;;;2.78;;
53389;SDS011;39288;42.970;1.524;2022-07-09T03:25:13;6.40;;;2.53;;
53389;SDS011;39288;42.970;1.524;2022-07-09T03:26:14;4.20;;;2.53;;
53389;SDS011;39288;42.970;1.524;2022-07-09T03:27:14;5.57;;;2.90;;
53389;SDS011;39288;42.970;1.524;2022-07-09T03:28:15;4.50;;;3.20;;
53389;SDS011;39288;42.970;1.524;2022-07-09T03:29:15;3.73;;;2.50;;
53389;SDS011;39288;42.970;1.524;2022-07-09T03:30:16;4.80;;;2.57;;
53389;SDS011;39288;42.970;1.524;2022-07-09T03:31:17;6.17;;;2.77;;
53389;SDS011;39288;42.970;1.524;2022-07-09T03:32:17;4.47;;;2.90;;
53389;SDS011;39288;42.970;1.524;2022-07-09T03:33:18;4.43;;;2.90;;
53389;SDS011;39288;42.970;1.524;2022-07-09T03:34:18;8.00;;;2.93;;
53389;SDS011;39288;42.970;1.524;2022-07-09T03:35:19;8.33;;;3.17;;
53389;SDS011;39288;42.970;1.524;2022-07-09T03:36:19;6.13;;;3.30;;
53389;SDS011;39288;42.970;1.524;2022-07-09T03:37:20;4.87;;;3.17;;
53389;SDS011;39288;42.970;1.524;2022-07-09T03:38:21;4.23;;;3.00;;
53389;SDS011;39288;42.970;1.524;2022-07-09T03:39:21;4.32;;;2.60;;
53389;SDS011;39288;42.970;1.524;2022-07-09T03:40:22;6.60;;;2.87;;
53389;SDS011;39288;42.970;1.524;2022-07-09T03:41:22;3.80;;;2.60;;
53389;SDS011;39288;42.970;1.524;2022-07-09T03:42:23;5.00;;;3.00;;
53389;SDS011;39288;42.970;1.524;2022-07-09T03:43:23;6.03;;;2.83;;
53389;SDS011;39288;42.970;1.524;2022-07-09T03:44:24;4.83;;;3.00;;
53389;SDS011;39288;42.970;1.524;2022-07-09T03:45:24;6.57;;;3.20;;
53389;SDS011;39288;42.970;1.524;2022-07-09T03:46:25;5.23;;;3.07;;
53389;SDS011;39288;42.970;1.524;2022-07-09T03:47:26;4.67;;;2.97;;
53389;SDS011;39288;42.970;1.524;2022-07-09T03:48:26;4.83;;;2.83;;
53389;SDS011;39288;42.970;1.524;2022-07-09T03:49:27;4.07;;;2.73;;
53389;SDS011;39288;42.970;1.524;2022-07-09T03:50:27;3.47;;;2.33;;
53389;SDS011;39288;42.970;1.524;2022-07-09T03:51:28;5.07;;;2.50;;
53389;SDS011;39288;42.970;1.524;2022-07-09T03:52:28;5.63;;;3.03;;
53389;SDS011;39288;42.970;1.524;2022-07-09T03:53:29;4.70;;;3.10;;
53389;SDS011;39288;42.970;1.524;2022-07-09T03:54:29;9.47;;;3.00;;
53389;SDS011;39288;42.970;1.524;2022-07-09T03:55:30;6.03;;;2.77;;
53389;SDS011;39288;42.970;1.524;2022-07-09T03:56:30;3.40;;;2.43;;
53389;SDS011;39288;42.970;1.524;2022-07-09T03:57:31;6.60;;;2.50;;
53389;SDS011;39288;42.970;1.524;2022-07-09T03:58:31;5.93;;;2.50;;
53389;SDS011;39288;42.970;1.524;2022-07-09T03:59:32;4.67;;;3.00;;
53389;SDS011;39288;42.970;1.524;2022-07-09T04:00:32;4.20;;;2.67;;
53389;SDS011;39288;42.970;1.524;2022-07-09T04:01:33;7.90;;;3.30;;
53389;SDS011;39288;42.970;1.524;2022-07-09T04:02:33;8.07;;;2.40;;
53389;SDS011;39288;42.970;1.524;2022-07-09T04:03:34;5.40;;;2.40;;
53389;SDS011;39288;42.970;1.524;2022-07-09T04:04:34;3.57;;;2.83;;
53389;SDS011;39288;42.970;1.524;2022-07-09T04:05:35;4.13;;;2.90;;
53389;SDS011;39288;42.970;1.524;2022-07-09T04:06:35;5.20;;;2.73;;
53389;SDS011;39288;42.970;1.524;2022-07-09T04:07:36;5.23;;;3.20;;
53389;SDS011;39288;42.970;1.524;2022-07-09T04:08:36;4.27;;;2.60;;
53389;SDS011;39288;42.970;1.524;2022-07-09T04:09:37;4.53;;;3.03;;
53389;SDS011;39288;42.970;1.524;2022-07-09T04:10:37;3.83;;;2.67;;
53389;SDS011;39288;42.970;1.524;2022-07-09T04:11:38;3.87;;;3.10;;
53389;SDS011;39288;42.970;1.524;2022-07-09T04:12:38;4.57;;;3.57;;
53389;SDS011;39288;42.970;1.524;2022-07-09T04:13:39;4.07;;;2.83;;
53389;SDS011;39288;42.970;1.524;2022-07-09T04:14:39;4.53;;;2.70;;
53389;SDS011;39288;42.970;1.524;2022-07-09T04:15:39;3.83;;;2.80;;
53389;SDS011;39288;42.970;1.524;2022-07-09T04:16:40;4.73;;;2.93;;
53389;SDS011;39288;42.970;1.524;2022-07-09T04:17:41;4.63;;;2.60;;
53389;SDS011;39288;42.970;1.524;2022-07-09T04:18:41;4.23;;;3.00;;
53389;SDS011;39288;42.970;1.524;2022-07-09T04:19:45;5.55;;;2.67;;
53389;SDS011;39288;42.970;1.524;2022-07-09T04:20:45;8.37;;;3.07;;
53389;SDS011;39288;42.970;1.524;2022-07-09T04:21:46;4.37;;;2.60;;
53389;SDS011;39288;42.970;1.524;2022-07-09T04:22:46;4.53;;;3.00;;
53389;SDS011;39288;42.970;1.524;2022-07-09T04:23:50;4.93;;;2.80;;
53389;SDS011;39288;42.970;1.524;2022-07-09T04:24:51;4.78;;;2.78;;
53389;SDS011;39288;42.970;1.524;2022-07-09T04:25:52;4.50;;;2.60;;
53389;SDS011;39288;42.970;1.524;2022-07-09T04:26:52;3.87;;;2.63;;
53389;SDS011;39288;42.970;1.524;2022-07-09T04:27:53;4.40;;;2.97;;
53389;SDS011;39288;42.970;1.524;2022-07-09T04:28:53;3.27;;;2.33;;
53389;SDS011;39288;42.970;1.524;2022-07-09T04:29:54;4.57;;;2.60;;
53389;SDS011;39288;42.970;1.524;2022-07-09T04:30:55;3.10;;;2.13;;
53389;SDS011;39288;42.970;1.524;2022-07-09T04:31:56;5.20;;;2.33;;
53389;SDS011;39288;42.970;1.524;2022-07-09T04:32:56;3.13;;;2.10;;
53389;SDS011;39288;42.970;1.524;2022-07-09T04:33:57;5.77;;;2.87;;
53389;SDS011;39288;42.970;1.524;2022-07-09T04:34:57;4.37;;;2.70;;
53389;SDS011;39288;42.970;1.524;2022-07-09T04:35:58;6.80;;;2.53;;
53389;SDS011;39288;42.970;1.524;2022-07-09T04:36:58;4.93;;;3.43;;
53389;SDS011;39288;42.970;1.524;2022-07-09T04:37:59;5.37;;;3.47;;
53389;SDS011;39288;42.970;1.524;2022-07-09T04:38:59;7.97;;;3.60;;
53389;SDS011;39288;42.970;1.524;2022-07-09T04:40:00;5.07;;;3.10;;
53389;SDS011;39288;42.970;1.524;2022-07-09T04:41:00;4.40;;;2.90;;
53389;SDS011;39288;42.970;1.524;2022-07-09T04:42:01;5.67;;;3.13;;
53389;SDS011;39288;42.970;1.524;2022-07-09T04:43:01;3.33;;;2.70;;
53389;SDS011;39288;42.970;1.524;2022-07-09T04:44:02;3.93;;;2.80;;
53389;SDS011;39288;42.970;1.524;2022-07-09T04:45:03;5.47;;;3.10;;
53389;SDS011;39288;42.970;1.524;2022-07-09T04:46:03;5.50;;;2.90;;
53389;SDS011;39288;42.970;1.524;2022-07-09T04:47:04;3.97;;;2.70;;
53389;SDS011;39288;42.970;1.524;2022-07-09T04:48:04;4.90;;;2.83;;
53389;SDS011;39288;42.970;1.524;2022-07-09T04:49:05;3.50;;;2.77;;
53389;SDS011;39288;42.970;1.524;2022-07-09T04:50:05;7.90;;;3.10;;
53389;SDS011;39288;42.970;1.524;2022-07-09T04:51:06;3.83;;;3.17;;
53389;SDS011;39288;42.970;1.524;2022-07-09T04:52:07;5.57;;;3.10;;
53389;SDS011;39288;42.970;1.524;2022-07-09T04:53:07;4.37;;;3.00;;
53389;SDS011;39288;42.970;1.524;2022-07-09T04:54:08;5.37;;;2.67;;
53389;SDS011;39288;42.970;1.524;2022-07-09T04:55:09;5.10;;;2.57;;
53389;SDS011;39288;42.970;1.524;2022-07-09T04:56:10;5.45;;;3.05;;
53389;SDS011;39288;42.970;1.524;2022-07-09T04:57:11;6.70;;;3.00;;
53389;SDS011;39288;42.970;1.524;2022-07-09T04:58:11;8.33;;;3.20;;
53389;SDS011;39288;42.970;1.524;2022-07-09T04:59:12;4.60;;;3.00;;
53389;SDS011;39288;42.970;1.524;2022-07-09T05:00:12;4.87;;;3.30;;
53389;SDS011;39288;42.970;1.524;2022-07-09T05:01:13;3.63;;;2.85;;
53389;SDS011;39288;42.970;1.524;2022-07-09T05:02:14;4.27;;;3.13;;
53389;SDS011;39288;42.970;1.524;2022-07-09T05:03:14;5.37;;;2.90;;
53389;SDS011;39288;42.970;1.524;2022-07-09T05:04:15;4.27;;;2.90;;
53389;SDS011;39288;42.970;1.524;2022-07-09T05:05:15;6.43;;;3.00;;
53389;SDS011;39288;42.970;1.524;2022-07-09T05:06:17;4.67;;;2.73;;
53389;SDS011;39288;42.970;1.524;2022-07-09T05:07:18;4.13;;;2.55;;
53389;SDS011;39288;42.970;1.524;2022-07-09T05:08:18;3.70;;;2.57;;
53389;SDS011;39288;42.970;1.524;2022-07-09T05:09:19;5.10;;;2.63;;
53389;SDS011;39288;42.970;1.524;2022-07-09T05:10:19;4.60;;;2.50;;
53389;SDS011;39288;42.970;1.524;2022-07-09T05:11:20;4.68;;;2.47;;
53389;SDS011;39288;42.970;1.524;2022-07-09T05:12:21;4.43;;;2.07;;
53389;SDS011;39288;42.970;1.524;2022-07-09T05:13:21;4.73;;;2.43;;
53389;SDS011;39288;42.970;1.524;2022-07-09T05:14:22;4.40;;;2.37;;
53389;SDS011;39288;42.970;1.524;2022-07-09T05:15:22;5.77;;;2.80;;
53389;SDS011;39288;42.970;1.524;2022-07-09T05:16:23;2.57;;;1.90;;
53389;SDS011;39288;42.970;1.524;2022-07-09T05:17:24;3.40;;;2.40;;
53389;SDS011;39288;42.970;1.524;2022-07-09T05:18:24;2.60;;;2.37;;
53389;SDS011;39288;42.970;1.524;2022-07-09T05:19:25;3.23;;;2.47;;
53389;SDS011;39288;42.970;1.524;2022-07-09T05:20:25;5.57;;;2.17;;
53389;SDS011;39288;42.970;1.524;2022-07-09T05:21:26;4.10;;;2.40;;
53389;SDS011;39288;42.970;1.524;2022-07-09T05:22:26;3.60;;;2.30;;
53389;SDS011;39288;42.970;1.524;2022-07-09T05:23:27;4.57;;;2.40;;
53389;SDS011;39288;42.970;1.524;2022-07-09T05:24:27;2.90;;;2.60;;
53389;SDS011;39288;42.970;1.524;2022-07-09T05:25:28;3.67;;;2.00;;
53389;SDS011;39288;42.970;1.524;2022-07-09T05:26:29;6.03;;;2.30;;
53389;SDS011;39288;42.970;1.524;2022-07-09T05:27:29;4.60;;;2.33;;
53389;SDS011;39288;42.970;1.524;2022-07-09T05:28:30;4.03;;;2.73;;
53389;SDS011;39288;42.970;1.524;2022-07-09T05:29:30;5.07;;;2.50;;
53389;SDS011;39288;42.970;1.524;2022-07-09T05:30:31;4.53;;;2.33;;
53389;SDS011;39288;42.970;1.524;2022-07-09T05:31:37;3.90;;;2.00;;
53389;SDS011;39288;42.970;1.524;2022-07-09T05:32:37;3.00;;;2.50;;
53389;SDS011;39288;42.970;1.524;2022-07-09T05:33:38;5.43;;;2.17;;
53389;SDS011;39288;42.970;1.524;2022-07-09T05:34:38;5.60;;;2.17;;
53389;SDS011;39288;42.970;1.524;2022-07-09T05:35:39;3.90;;;2.00;;
53389;SDS011;39288;42.970;1.524;2022-07-09T05:36:39;3.63;;;2.00;;
53389;SDS011;39288;42.970;1.524;2022-07-09T05:37:40;4.50;;;1.87;;
53389;SDS011;39288;42.970;1.524;2022-07-09T05:38:42;3.05;;;1.85;;
53389;SDS011;39288;42.970;1.524;2022-07-09T05:39:42;4.50;;;2.33;;
53389;SDS011;39288;42.970;1.524;2022-07-09T05:40:44;2.78;;;2.17;;
53389;SDS011;39288;42.970;1.524;2022-07-09T05:41:44;3.03;;;2.10;;
53389;SDS011;39288;42.970;1.524;2022-07-09T05:42:44;2.80;;;2.47;;
53389;SDS011;39288;42.970;1.524;2022-07-09T05:43:45;3.30;;;2.23;;
53389;SDS011;39288;42.970;1.524;2022-07-09T05:44:45;3.17;;;1.90;;
53389;SDS011;39288;42.970;1.524;2022-07-09T05:45:46;4.20;;;2.07;;
53389;SDS011;39288;42.970;1.524;2022-07-09T05:46:46;4.63;;;2.20;;
53389;SDS011;39288;42.970;1.524;2022-07-09T05:47:47;6.33;;;1.87;;
53389;SDS011;39288;42.970;1.524;2022-07-09T05:48:47;2.50;;;1.73;;
53389;SDS011;39288;42.970;1.524;2022-07-09T05:49:48;5.30;;;1.70;;
53389;SDS011;39288;42.970;1.524;2022-07-09T05:50:48;2.87;;;2.00;;
53389;SDS011;39288;42.970;1.524;2022-07-09T05:51:49;4.80;;;1.97;;
53389;SDS011;39288;42.970;1.524;2022-07-09T05:52:49;2.43;;;2.00;;
53389;SDS011;39288;42.970;1.524;2022-07-09T05:53:50;4.47;;;1.97;;
53389;SDS011;39288;42.970;1.524;2022-07-09T05:54:50;3.03;;;2.13;;
53389;SDS011;39288;42.970;1.524;2022-07-09T05:55:51;2.70;;;1.90;;
53389;SDS011;39288;42.970;1.524;2022-07-09T05:56:51;2.83;;;1.83;;
53389;SDS011;39288;42.970;1.524;2022-07-09T05:57:52;4.37;;;1.80;;
53389;SDS011;39288;42.970;1.524;2022-07-09T05:58:52;4.33;;;2.03;;
53389;SDS011;39288;42.970;1.524;2022-07-09T05:59:53;2.33;;;2.10;;
53389;SDS011;39288;42.970;1.524;2022-07-09T06:00:53;2.97;;;2.00;;
53389;SDS011;39288;42.970;1.524;2022-07-09T06:01:54;2.57;;;1.57;;
53389;SDS011;39288;42.970;1.524;2022-07-09T06:02:54;3.27;;;2.03;;
53389;SDS011;39288;42.970;1.524;2022-07-09T06:03:55;2.13;;;1.60;;
53389;SDS011;39288;42.970;1.524;2022-07-09T06:04:55;2.20;;;1.80;;
53389;SDS011;39288;42.970;1.524;2022-07-09T06:05:56;5.43;;;2.13;;
53389;SDS011;39288;42.970;1.524;2022-07-09T06:06:56;3.13;;;1.97;;
53389;SDS011;39288;42.970;1.524;2022-07-09T06:07:57;2.90;;;1.63;;
53389;SDS011;39288;42.970;1.524;2022-07-09T06:08:57;2.57;;;1.80;;
53389;SDS011;39288;42.970;1.524;2022-07-09T06:09:58;6.17;;;1.57;;
53389;SDS011;39288;42.970;1.524;2022-07-09T06:10:59;3.37;;;1.73;;
53389;SDS011;39288;42.970;1.524;2022-07-09T06:11:59;3.63;;;1.88;;